createdAt,value
2022-11-01T00:00:10.556Z,7.77
2022-11-01T00:03:15.711Z,7.50
2022-11-01T00:06:20.243Z,8.15
2022-11-01T00:09:25.148Z,8.98
2022-11-01T00:12:31.877Z,8.25
2022-11-01T00:15:38.073Z,6.35
2022-11-01T00:18:43.211Z,6.32
2022-11-01T00:21:48.847Z,6.70
2022-11-01T00:24:54.993Z,6.10
2022-11-01T00:27:59.962Z,7.00
2022-11-01T00:31:10.233Z,7.45
2022-11-01T00:34:18.059Z,5.77
2022-11-01T00:37:23.493Z,8.17
2022-11-01T00:40:28.993Z,9.53
2022-11-01T00:43:34.763Z,10.70
2022-11-01T00:46:41.716Z,9.57
2022-11-01T00:49:46.588Z,10.07
2022-11-01T00:52:51.525Z,8.07
2022-11-01T00:56:01.221Z,8.87
2022-11-01T00:59:07.279Z,8.70
2022-11-01T01:02:13.866Z,8.10
2022-11-01T01:05:22.079Z,9.73
2022-11-01T01:08:27.992Z,7.33
2022-11-01T01:11:33.016Z,11.03
2022-11-01T01:14:38.068Z,7.30
2022-11-01T01:17:47.585Z,7.82
2022-11-01T01:20:53.060Z,7.95
2022-11-01T01:23:57.944Z,8.15
2022-11-01T01:27:03.740Z,8.70
2022-11-01T01:30:12.102Z,6.45
2022-11-01T01:33:18.910Z,7.05
2022-11-01T01:36:23.754Z,7.93
2022-11-01T01:39:28.778Z,9.45
2022-11-01T01:42:35.497Z,8.55
2022-11-01T01:45:42.069Z,8.48
2022-11-01T01:48:53.326Z,6.13
2022-11-01T01:51:58.373Z,5.55
2022-11-01T01:55:08.652Z,9.32
2022-11-01T01:58:15.749Z,6.15
2022-11-01T02:01:20.939Z,6.55
2022-11-01T02:04:32.757Z,7.35
2022-11-01T02:07:37.598Z,8.25
2022-11-01T02:10:43.852Z,8.82
2022-11-01T02:13:49.194Z,6.22
2022-11-01T02:17:05.592Z,7.40
2022-11-01T02:20:48.382Z,4.55
2022-11-01T02:24:10.230Z,4.90
2022-11-01T02:27:25.429Z,6.10
2022-11-01T02:30:41.829Z,7.77
2022-11-01T02:33:54.106Z,7.82
2022-11-01T02:37:03.850Z,7.37
2022-11-01T02:40:11.428Z,8.75
2022-11-01T02:43:21.381Z,6.70
2022-11-01T02:46:47.067Z,4.97
2022-11-01T02:49:55.992Z,7.05
2022-11-01T02:53:02.841Z,7.97
2022-11-01T02:56:08.228Z,8.00
2022-11-01T02:59:19.855Z,6.22
2022-11-01T03:02:39.904Z,5.65
2022-11-01T03:05:54.388Z,5.50
2022-11-01T03:09:02.529Z,5.57
2022-11-01T03:12:12.652Z,8.07
2022-11-01T03:15:23.450Z,7.93
2022-11-01T03:18:34.361Z,6.45
2022-11-01T03:21:45.229Z,6.07
2022-11-01T03:24:54.328Z,7.72
2022-11-01T03:28:01.023Z,7.05
2022-11-01T03:31:11.544Z,6.38
2022-11-01T03:34:19.353Z,9.07
2022-11-01T03:37:27.624Z,5.40
2022-11-01T03:40:33.792Z,6.38
2022-11-01T03:43:39.791Z,6.60
2022-11-01T03:46:45.799Z,5.45
2022-11-01T03:49:50.611Z,6.18
2022-11-01T03:52:58.474Z,5.85
2022-11-01T03:56:03.216Z,6.10
2022-11-01T03:59:08.441Z,5.45
2022-11-01T04:02:13.427Z,5.85
2022-11-01T04:05:19.067Z,5.55
2022-11-01T04:08:25.128Z,6.97
2022-11-01T04:11:30.011Z,4.65
2022-11-01T04:14:51.232Z,5.25
2022-11-01T04:18:22.339Z,4.43
2022-11-01T04:21:31.363Z,4.45
2022-11-01T04:24:37.719Z,4.35
2022-11-01T04:27:42.202Z,4.70
2022-11-01T04:30:46.898Z,6.38
2022-11-01T04:33:51.916Z,4.38
2022-11-01T04:36:56.843Z,4.10
2022-11-01T04:40:03.281Z,3.92
2022-11-01T04:43:08.270Z,5.97
2022-11-01T04:46:13.956Z,3.65
2022-11-01T04:49:19.230Z,5.72
2022-11-01T04:52:24.077Z,3.50
2022-11-01T04:55:30.696Z,4.85
2022-11-01T04:58:43.062Z,7.00
2022-11-01T05:01:50.619Z,5.22
2022-11-01T05:04:55.558Z,4.20
2022-11-01T05:08:04.277Z,2.92
2022-11-01T05:11:10.891Z,2.33
2022-11-01T05:14:15.828Z,3.42
2022-11-01T05:17:20.765Z,4.07
2022-11-01T05:20:27.146Z,1.70
2022-11-01T05:23:31.755Z,3.47
2022-11-01T05:26:37.925Z,4.40
2022-11-01T05:29:43.433Z,2.58
2022-11-01T05:32:48.129Z,1.05
2022-11-01T05:35:53.009Z,3.10
2022-11-01T05:38:58.639Z,2.55
2022-11-01T05:42:04.717Z,4.20
2022-11-01T05:45:10.442Z,1.35
2022-11-01T05:48:15.094Z,1.35
2022-11-01T05:51:20.421Z,1.98
2022-11-01T05:54:25.736Z,2.85
2022-11-01T05:57:33.560Z,2.22
2022-11-01T06:00:40.857Z,1.38
2022-11-01T06:03:45.268Z,2.40
2022-11-01T06:06:50.101Z,2.03
2022-11-01T06:09:54.787Z,0.80
2022-11-01T06:13:01.481Z,1.75
2022-11-01T06:16:08.078Z,5.03
2022-11-01T06:19:12.993Z,8.20
2022-11-01T06:22:18.409Z,5.05
2022-11-01T06:25:23.656Z,5.35
2022-11-01T06:28:30.136Z,2.28
2022-11-01T06:31:35.416Z,2.22
2022-11-01T06:34:42.472Z,1.20
2022-11-01T06:37:49.690Z,1.40
2022-11-01T06:40:54.946Z,0.88
2022-11-01T06:44:01.192Z,0.70
2022-11-01T06:47:05.915Z,0.80
2022-11-01T06:50:11.127Z,0.80
2022-11-01T06:53:16.093Z,0.80
2022-11-01T06:56:21.263Z,0.73
2022-11-01T06:59:29.785Z,1.45
2022-11-01T07:02:34.636Z,0.75
2022-11-01T07:05:40.684Z,2.25
2022-11-01T07:08:45.174Z,1.98
2022-11-01T07:11:49.962Z,1.38
2022-11-01T07:14:56.807Z,1.20
2022-11-01T07:18:04.242Z,1.13
2022-11-01T07:21:09.875Z,0.90
2022-11-01T07:24:14.630Z,0.45
2022-11-01T07:27:20.671Z,0.63
2022-11-01T07:30:26.972Z,0.70
2022-11-01T07:33:33.958Z,0.63
2022-11-01T07:36:38.973Z,0.85
2022-11-01T07:39:43.754Z,0.82
2022-11-01T07:42:48.734Z,0.43
2022-11-01T07:45:55.210Z,0.30
2022-11-01T07:49:00.778Z,1.42
2022-11-01T07:52:05.688Z,0.60
2022-11-01T07:55:11.808Z,0.20
2022-11-01T07:58:18.035Z,1.13
2022-11-01T08:01:24.775Z,0.88
2022-11-01T08:04:31.395Z,0.30
2022-11-01T08:07:40.465Z,0.20
2022-11-01T08:10:45.372Z,0.93
2022-11-01T08:13:50.171Z,0.40
2022-11-01T08:17:00.886Z,0.30
2022-11-01T08:20:05.927Z,0.55
2022-11-01T08:23:11.406Z,0.50
2022-11-01T08:26:16.514Z,0.50
2022-11-01T08:29:21.838Z,0.90
2022-11-01T08:32:29.247Z,1.00
2022-11-01T08:35:35.114Z,0.60
2022-11-01T08:38:39.810Z,0.57
2022-11-01T08:41:44.932Z,0.47
2022-11-01T08:44:49.900Z,0.63
2022-11-01T08:48:01.892Z,0.35
2022-11-01T08:51:06.940Z,1.58
2022-11-01T08:54:12.547Z,0.57
2022-11-01T08:57:17.825Z,0.40
2022-11-01T09:00:22.415Z,0.40
2022-11-01T09:03:28.828Z,0.70
2022-11-01T09:06:36.368Z,0.50
2022-11-01T09:09:41.570Z,0.57
2022-11-01T09:12:46.445Z,0.50
2022-11-01T09:15:51.986Z,0.30
2022-11-01T09:19:02.022Z,0.32
2022-11-01T09:22:10.562Z,0.30
2022-11-01T09:25:18.235Z,1.02
2022-11-01T09:28:23.471Z,1.08
2022-11-01T09:31:28.852Z,2.00
2022-11-01T09:34:40.347Z,0.80
2022-11-01T09:38:04.487Z,1.10
2022-11-01T09:41:48.593Z,0.82
2022-11-01T09:44:57.748Z,0.52
2022-11-01T09:48:06.256Z,0.50
2022-11-01T09:51:19.376Z,0.38
2022-11-01T09:54:27.018Z,0.38
2022-11-01T09:57:38.040Z,0.70
2022-11-01T10:00:51.939Z,0.60
2022-11-01T10:04:16.131Z,1.20
2022-11-01T10:07:30.063Z,0.75
2022-11-01T10:10:41.289Z,0.25
2022-11-01T10:13:54.852Z,0.73
2022-11-01T10:17:09.085Z,0.35
2022-11-01T10:20:15.662Z,1.13
2022-11-01T10:23:38.989Z,0.40
2022-11-01T10:26:45.844Z,0.43
2022-11-01T10:29:57.903Z,1.38
2022-11-01T10:33:18.698Z,0.40
2022-11-01T10:36:29.669Z,0.88
2022-11-01T10:40:01.318Z,0.70
2022-11-01T10:43:15.385Z,1.55
2022-11-01T10:46:26.930Z,1.77
2022-11-01T10:53:04.003Z,0.40
2022-11-01T10:56:13.877Z,0.50
2022-11-01T10:59:22.677Z,1.27
2022-11-01T11:02:30.845Z,1.70
2022-11-01T11:05:35.807Z,2.05
2022-11-01T11:08:43.118Z,0.80
2022-11-01T11:11:51.968Z,1.63
2022-11-01T11:15:01.876Z,0.47
2022-11-01T11:18:21.617Z,1.15
2022-11-01T11:21:28.234Z,0.85
2022-11-01T11:24:36.601Z,1.15
2022-11-01T11:27:47.753Z,1.80
2022-11-01T11:30:52.764Z,3.35
2022-11-01T11:34:01.653Z,0.85
2022-11-01T11:37:08.884Z,1.83
2022-11-01T11:40:22.965Z,1.50
2022-11-01T11:43:35.066Z,0.80
2022-11-01T11:46:39.917Z,1.63
2022-11-01T11:49:45.066Z,1.98
2022-11-01T11:52:52.163Z,0.70
2022-11-01T11:56:00.048Z,1.27
2022-11-01T11:59:12.674Z,0.98
2022-11-01T12:02:22.278Z,2.65
2022-11-01T12:05:29.057Z,1.90
2022-11-01T12:08:45.188Z,2.70
2022-11-01T12:11:50.133Z,2.13
2022-11-01T12:14:56.882Z,1.60
2022-11-01T12:18:15.809Z,0.68
2022-11-01T12:21:25.759Z,1.95
2022-11-01T12:24:38.340Z,2.20
2022-11-01T12:27:51.151Z,1.50
2022-11-01T12:31:05.545Z,1.75
2022-11-01T12:34:20.142Z,1.83
2022-11-01T12:37:30.003Z,3.25
2022-11-01T12:40:38.673Z,4.13
2022-11-01T12:43:56.489Z,3.22
2022-11-01T12:47:08.617Z,2.25
2022-11-01T12:50:21.749Z,1.33
2022-11-01T12:53:30.430Z,3.85
2022-11-01T12:56:36.001Z,1.08
2022-11-01T12:59:41.075Z,2.92
2022-11-01T13:03:09.665Z,2.65
2022-11-01T13:06:30.959Z,2.28
2022-11-01T13:09:47.525Z,2.67
2022-11-01T13:13:00.852Z,4.03
2022-11-01T13:16:11.801Z,1.00
2022-11-01T13:19:23.978Z,4.07
2022-11-01T13:22:37.753Z,2.10
2022-11-01T13:25:49.348Z,1.95
2022-11-01T13:29:09.131Z,2.45
2022-11-01T13:32:22.237Z,1.30
2022-11-01T13:35:56.392Z,2.92
2022-11-01T13:39:15.343Z,2.03
2022-11-01T13:42:24.283Z,1.92
2022-11-01T13:45:51.800Z,3.88
2022-11-01T13:49:27.077Z,2.20
2022-11-01T13:52:36.183Z,6.93
2022-11-01T13:55:45.275Z,2.75
2022-11-01T13:58:50.366Z,2.22
2022-11-01T14:01:55.020Z,1.80
2022-11-01T14:04:59.987Z,2.30
2022-11-01T14:08:27.519Z,1.20
2022-11-01T14:11:50.914Z,6.15
2022-11-01T14:14:56.994Z,2.58
2022-11-01T14:18:10.000Z,1.27
2022-11-01T14:21:29.001Z,0.75
2022-11-01T14:24:35.838Z,1.73
2022-11-01T14:27:43.930Z,1.70
2022-11-01T14:30:53.746Z,1.42
2022-11-01T14:34:00.347Z,0.60
2022-11-01T14:37:31.367Z,2.75
2022-11-01T14:40:42.004Z,1.15
2022-11-01T14:43:49.711Z,1.35
2022-11-01T14:47:01.005Z,2.40
2022-11-01T14:50:17.021Z,1.80
2022-11-01T14:53:28.343Z,2.42
2022-11-01T14:56:40.893Z,3.17
2022-11-01T14:59:45.909Z,2.70
2022-11-01T15:02:51.229Z,4.10
2022-11-01T15:05:56.043Z,1.02
2022-11-01T15:09:03.247Z,1.63
2022-11-01T15:12:12.168Z,3.05
2022-11-01T15:15:20.916Z,2.30
2022-11-01T15:18:26.141Z,6.65
2022-11-01T15:21:31.598Z,2.85
2022-11-01T15:24:37.888Z,1.70
2022-11-01T15:27:46.772Z,1.40
2022-11-01T15:30:57.656Z,2.70
2022-11-01T15:34:04.696Z,2.33
2022-11-01T15:37:22.976Z,2.28
2022-11-01T15:40:31.197Z,1.50
2022-11-01T15:43:37.228Z,3.55
2022-11-01T15:46:43.905Z,2.42
2022-11-01T15:49:53.059Z,1.25
2022-11-01T15:53:04.344Z,1.13
2022-11-01T15:56:15.557Z,2.05
2022-11-01T15:59:29.076Z,3.38
2022-11-01T16:02:40.706Z,0.95
2022-11-01T16:05:49.714Z,2.88
2022-11-01T16:09:00.129Z,1.13
2022-11-01T16:12:07.571Z,1.40
2022-11-01T16:15:24.284Z,5.75
2022-11-01T16:18:29.311Z,2.00
2022-11-01T16:21:34.189Z,5.55
2022-11-01T16:24:38.693Z,3.47
2022-11-01T16:28:05.727Z,4.68
2022-11-01T16:31:22.965Z,1.80
2022-11-01T16:34:29.653Z,4.38
2022-11-01T16:37:39.547Z,2.17
2022-11-01T16:40:44.156Z,3.30
2022-11-01T16:43:50.225Z,3.33
2022-11-01T16:46:57.477Z,2.08
2022-11-01T16:50:02.319Z,2.03
2022-11-01T16:53:12.372Z,1.77
2022-11-01T16:56:36.254Z,3.58
2022-11-01T16:59:44.050Z,1.90
2022-11-01T17:02:50.358Z,1.88
2022-11-01T17:05:56.477Z,3.67
2022-11-01T17:09:01.087Z,4.32
2022-11-01T17:12:06.705Z,1.92
2022-11-01T17:15:14.447Z,1.80
2022-11-01T17:18:27.120Z,2.83
2022-11-01T17:21:40.355Z,1.25
2022-11-01T17:24:45.269Z,4.53
2022-11-01T17:27:52.151Z,5.55
2022-11-01T17:30:59.079Z,4.30
2022-11-01T17:34:05.119Z,5.00
2022-11-01T17:37:14.810Z,1.92
2022-11-01T17:40:22.412Z,1.58
2022-11-01T17:43:27.142Z,1.88
2022-11-01T17:46:31.913Z,6.28
2022-11-01T17:49:38.501Z,2.75
2022-11-01T17:52:43.468Z,1.92
2022-11-01T17:55:48.571Z,2.30
2022-11-01T17:58:54.048Z,4.97
2022-11-01T18:01:58.999Z,3.35
2022-11-01T18:05:05.416Z,4.70
2022-11-01T18:08:17.748Z,4.38
2022-11-01T18:11:36.450Z,3.20
2022-11-01T18:18:07.290Z,3.70
2022-11-01T18:21:22.397Z,6.78
2022-11-01T18:24:37.195Z,3.20
2022-11-01T18:27:42.218Z,3.75
2022-11-01T18:43:23.769Z,1.83
2022-11-01T18:46:38.590Z,3.38
2022-11-01T18:49:46.001Z,2.22
2022-11-01T18:52:51.000Z,3.90
2022-11-01T18:55:58.304Z,4.13
2022-11-01T18:59:04.278Z,5.20
2022-11-01T19:02:16.654Z,2.60
2022-11-01T19:05:29.661Z,2.22
2022-11-01T19:08:33.999Z,2.00
2022-11-01T19:11:40.176Z,3.67
2022-11-01T19:14:46.687Z,2.67
2022-11-01T19:17:59.745Z,2.83
2022-11-01T19:21:16.483Z,4.23
2022-11-01T19:24:47.133Z,2.63
2022-11-01T19:27:57.359Z,4.50
2022-11-01T19:31:09.511Z,3.87
2022-11-01T19:34:19.134Z,3.27
2022-11-01T19:37:33.262Z,3.93
2022-11-01T19:40:41.709Z,4.37
2022-11-01T19:43:48.386Z,3.67
2022-11-01T19:46:56.801Z,5.33
2022-11-01T19:50:01.481Z,3.33
2022-11-01T19:53:18.655Z,3.00
2022-11-01T19:56:26.629Z,4.13
2022-11-01T19:59:34.777Z,2.30
2022-11-01T20:02:39.867Z,3.07
2022-11-01T20:05:44.773Z,2.63
2022-11-01T20:08:52.204Z,2.37
2022-11-01T20:11:57.112Z,3.47
2022-11-01T20:15:03.301Z,3.47
2022-11-01T20:18:08.285Z,2.40
2022-11-01T20:21:13.324Z,4.63
2022-11-01T20:24:17.920Z,2.43
2022-11-01T20:27:23.604Z,2.53
2022-11-01T20:30:30.028Z,3.37
2022-11-01T20:33:38.396Z,3.87
2022-11-01T20:36:46.827Z,3.40
2022-11-01T20:39:58.886Z,3.20
2022-11-01T20:43:03.645Z,1.70
2022-11-01T20:46:11.014Z,4.93
2022-11-01T20:49:16.264Z,4.90
2022-11-01T20:52:39.757Z,1.87
2022-11-01T20:55:44.998Z,2.13
2022-11-01T20:58:49.835Z,1.83
2022-11-01T21:01:56.376Z,2.40
2022-11-01T21:05:05.633Z,1.40
2022-11-01T21:08:22.826Z,3.13
2022-11-01T21:11:44.351Z,1.83
2022-11-01T21:14:54.338Z,4.20
2022-11-01T21:18:36.395Z,1.63
2022-11-01T21:21:46.554Z,2.37
2022-11-01T21:24:51.959Z,2.23
2022-11-01T21:27:58.443Z,1.70
2022-11-01T21:31:13.488Z,2.60
2022-11-01T21:34:27.876Z,1.77
2022-11-01T21:37:32.823Z,1.27
2022-11-01T21:40:38.005Z,1.90
2022-11-01T21:43:45.980Z,2.47
2022-11-01T21:46:53.117Z,1.30
2022-11-01T21:49:59.501Z,2.13
2022-11-01T21:53:04.171Z,3.83
2022-11-01T21:56:09.562Z,2.43
2022-11-01T21:59:14.320Z,1.90
2022-11-01T22:02:19.251Z,3.17
2022-11-01T22:05:25.232Z,2.00
2022-11-01T22:08:29.731Z,2.50
2022-11-01T22:11:34.392Z,2.80
2022-11-01T22:14:38.995Z,3.30
2022-11-01T22:17:44.371Z,1.83
2022-11-01T22:20:52.687Z,5.30
2022-11-01T22:23:59.843Z,2.10
2022-11-01T22:27:05.350Z,1.27
2022-11-01T22:30:11.514Z,1.87
2022-11-01T22:33:16.107Z,1.87
2022-11-01T22:36:24.656Z,1.90
2022-11-01T22:39:31.638Z,1.30
2022-11-01T22:42:36.192Z,1.47
2022-11-01T22:45:43.006Z,1.23
2022-11-01T22:48:47.503Z,2.40
2022-11-01T22:51:55.848Z,1.30
2022-11-01T22:55:06.123Z,1.50
2022-11-01T22:58:34.376Z,2.40
2022-11-01T23:01:39.470Z,3.73
2022-11-01T23:04:44.057Z,0.93
2022-11-01T23:07:51.593Z,1.27
2022-11-01T23:10:56.378Z,1.00
2022-11-01T23:14:19.146Z,1.90
2022-11-01T23:17:26.883Z,1.07
2022-11-01T23:20:31.605Z,3.80
2022-11-01T23:23:39.633Z,2.20
2022-11-01T23:26:45.679Z,0.77
2022-11-01T23:29:53.722Z,1.07
2022-11-01T23:32:59.632Z,1.13
2022-11-01T23:36:04.477Z,2.80
2022-11-01T23:39:13.502Z,0.93
2022-11-01T23:42:22.483Z,2.10
2022-11-01T23:45:31.712Z,3.03
2022-11-01T23:48:41.586Z,1.17
2022-11-01T23:51:49.161Z,2.23
2022-11-01T23:54:56.154Z,1.03
2022-11-01T23:58:04.113Z,1.77
